Time;durP1;ratioP1;P1;durP2;ratioP2;P2;SDS_P1;SDS_P2;PMS_P1;PMS_P2;Temp;Humidity;BMP_temperature;BMP_pressure;BME280_temperature;BME280_humidity;BME280_pressure;Samples;Min_cycle;Max_cycle;Signal;HPM_P1;HPM_P2
2023/03/13 00:01:28;;;;;;;40.07;8.03;;;8.40;99.90;;;;;;5052020;28;20494;-77
2023/03/13 00:03:54;;;;;;;35.17;8.47;;;8.40;99.90;;;;;;5067759;28;20093;-77
2023/03/13 00:06:22;;;;;;;39.10;8.67;;;8.30;99.90;;;;;;5039859;28;20048;-80
2023/03/13 00:08:47;;;;;;;40.63;8.43;;;8.30;99.90;;;;;;5065690;28;20387;-77
2023/03/13 00:11:14;;;;;;;41.00;8.27;;;8.30;99.90;;;;;;5069338;28;20044;-77
2023/03/13 00:13:41;;;;;;;43.10;8.17;;;8.30;99.90;;;;;;5050040;28;20044;-77
2023/03/13 00:16:15;;;;;;;42.47;8.20;;;8.30;99.90;;;;;;5063720;28;20040;-79
2023/03/13 00:18:49;;;;;;;41.30;8.60;;;8.30;99.90;;;;;;5063402;28;20086;-77
2023/03/13 00:21:16;;;;;;;49.70;9.57;;;8.30;99.90;;;;;;5068383;28;20467;-78
2023/03/13 00:23:42;;;;;;;47.83;9.63;;;8.30;99.90;;;;;;5050130;28;20041;-77
2023/03/13 00:26:10;;;;;;;47.93;9.20;;;8.20;99.90;;;;;;5063073;28;20037;-77
2023/03/13 00:28:38;;;;;;;39.90;8.23;;;8.20;99.90;;;;;;5061493;28;20048;-77
2023/03/13 00:31:05;;;;;;;48.60;9.83;;;8.20;99.90;;;;;;5052767;28;20064;-78
2023/03/13 00:33:37;;;;;;;43.60;9.77;;;8.20;99.90;;;;;;5070322;28;20121;-78
2023/03/13 00:36:09;;;;;;;47.23;9.30;;;8.20;99.90;;;;;;5072445;28;20086;-77
2023/03/13 00:38:35;;;;;;;41.03;9.10;;;8.20;99.90;;;;;;5064668;28;20098;-77
2023/03/13 00:41:06;;;;;;;41.63;9.83;;;8.20;99.90;;;;;;5072066;28;20048;-77
2023/03/13 00:43:32;;;;;;;48.03;10.48;;;8.20;99.90;;;;;;5054443;28;20531;-77
2023/03/13 00:45:58;;;;;;;48.03;10.07;;;8.20;99.90;;;;;;5072794;28;20110;-77
2023/03/13 00:48:24;;;;;;;47.33;10.60;;;8.30;99.90;;;;;;5056267;28;20521;-77
2023/03/13 00:50:50;;;;;;;52.67;10.83;;;8.20;99.90;;;;;;5068668;28;20044;-77
2023/03/13 00:53:16;;;;;;;46.80;10.43;;;8.30;99.90;;;;;;5063316;28;20052;-77
2023/03/13 00:56:00;;;;;;;40.57;9.90;;;8.30;99.90;;;;;;5073063;28;20522;-77
2023/03/13 00:58:28;;;;;;;42.47;10.33;;;8.20;99.90;;;;;;5038971;28;20032;-77
2023/03/13 01:00:54;;;;;;;39.20;9.43;;;8.20;99.90;;;;;;5072760;28;20051;-78
2023/03/13 01:03:21;;;;;;;50.70;10.90;;;8.20;99.90;;;;;;5071779;28;20044;-77
2023/03/13 01:06:00;;;;;;;47.57;9.97;;;8.20;99.90;;;;;;5072637;28;20040;-78
2023/03/13 01:08:28;;;;;;;44.87;10.50;;;8.20;99.90;;;;;;5055719;28;20044;-77
2023/03/13 01:11:00;;;;;;;43.80;10.43;;;8.20;99.90;;;;;;5072857;28;20041;-77
2023/03/13 01:13:28;;;;;;;50.37;10.17;;;8.20;99.90;;;;;;5070925;28;20076;-77
2023/03/13 01:15:53;;;;;;;44.67;10.80;;;8.20;99.90;;;;;;5053055;28;20055;-77
2023/03/13 01:18:19;;;;;;;38.43;10.30;;;8.20;99.90;;;;;;5037166;28;20040;-79
2023/03/13 01:20:45;;;;;;;46.27;10.80;;;8.20;99.90;;;;;;5071755;28;20143;-77
2023/03/13 01:23:10;;;;;;;43.20;11.40;;;8.20;99.90;;;;;;5071238;28;20060;-77
2023/03/13 01:25:37;;;;;;;52.33;11.00;;;8.30;99.90;;;;;;5054488;28;20033;-76
2023/03/13 01:28:03;;;;;;;42.53;10.23;;;8.30;99.90;;;;;;5055212;28;20045;-77
2023/03/13 01:30:30;;;;;;;45.00;10.47;;;8.30;99.90;;;;;;5071905;28;20114;-77
2023/03/13 01:32:56;;;;;;;45.47;10.63;;;8.30;99.90;;;;;;5074264;28;20076;-77
2023/03/13 01:35:22;;;;;;;42.33;10.87;;;8.30;99.90;;;;;;5071481;28;20070;-77
2023/03/13 01:37:47;;;;;;;50.60;10.30;;;8.30;99.90;;;;;;5055615;28;20107;-77
2023/03/13 01:40:13;;;;;;;47.80;10.87;;;8.30;99.90;;;;;;5072069;28;20089;-77
2023/03/13 01:43:20;;;;;;;46.70;11.73;;;8.30;99.90;;;;;;5070572;28;20094;-77
2023/03/13 01:46:35;;;;;;;45.23;10.10;;;8.30;99.90;;;;;;5073830;28;20397;-77
2023/03/13 01:49:11;;;;;;;39.50;10.20;;;8.30;99.90;;;;;;5065246;28;20052;-78
2023/03/13 01:51:43;;;;;;;42.83;9.80;;;8.40;99.90;;;;;;5061245;28;20037;-77
2023/03/13 01:54:11;;;;;;;;;;;8.30;99.90;;;;;;5063421;28;20043;-77
2023/03/13 01:56:55;;;;;;;41.00;9.43;;;8.40;99.90;;;;;;5039790;28;20003;-78
2023/03/13 01:59:25;;;;;;;40.63;9.63;;;8.40;99.90;;;;;;5070632;28;20052;-77
2023/03/13 02:01:55;;;;;;;38.40;9.63;;;8.40;99.90;;;;;;5071691;28;20505;-77
2023/03/13 02:04:23;;;;;;;44.70;10.17;;;8.40;99.90;;;;;;5070684;28;20091;-77
2023/03/13 02:06:53;;;;;;;39.17;9.03;;;8.40;99.90;;;;;;5037906;28;20763;-78
2023/03/13 02:09:23;;;;;;;50.60;9.93;;;8.40;99.90;;;;;;5069297;28;20127;-78
2023/03/13 02:12:07;;;;;;;47.47;10.57;;;8.40;99.90;;;;;;5071735;28;20433;-77
2023/03/13 02:14:36;;;;;;;37.10;9.73;;;8.40;99.90;;;;;;5070610;28;20049;-77
2023/03/13 02:17:03;;;;;;;40.80;9.97;;;8.40;99.90;;;;;;5037274;28;20059;-74
2023/03/13 02:19:47;;;;;;;44.10;10.27;;;8.40;99.90;;;;;;5070173;28;20124;-77
2023/03/13 02:22:33;;;;;;;51.90;11.13;;;8.30;99.90;;;;;;5070270;28;20051;-78
2023/03/13 02:25:44;;;;;;;53.77;10.93;;;8.30;99.90;;;;;;5071020;28;20581;-78
2023/03/13 02:28:16;;;;;;;48.40;11.18;;;8.30;99.90;;;;;;5036847;28;20508;-78
2023/03/13 02:30:43;;;;;;;46.95;10.98;;;8.30;99.90;;;;;;5070594;28;20040;-78
2023/03/13 02:33:11;;;;;;;44.80;10.20;;;8.30;99.90;;;;;;5072597;28;20044;-78
2023/03/13 02:35:37;;;;;;;45.00;10.87;;;8.20;99.90;;;;;;5053084;28;20044;-78
2023/03/13 02:38:06;;;;;;;34.17;10.33;;;8.30;99.90;;;;;;5055182;28;20045;-78
2023/03/13 02:40:40;;;;;;;39.53;10.67;;;8.30;99.90;;;;;;5052624;28;20127;-78
2023/03/13 02:43:14;;;;;;;30.97;9.43;;;8.30;99.90;;;;;;5069735;28;20047;-77
2023/03/13 02:45:40;;;;;;;38.33;10.33;;;8.30;99.90;;;;;;5072217;28;20111;-77
2023/03/13 02:48:06;;;;;;;32.30;9.70;;;8.30;99.90;;;;;;5052621;28;20040;-77
2023/03/13 02:50:34;;;;;;;30.70;9.87;;;8.40;99.90;;;;;;5068181;28;20055;-77
2023/03/13 02:53:04;;;;;;;28.67;9.57;;;8.40;99.90;;;;;;5066681;28;20490;-77
2023/03/13 02:55:39;;;;;;;32.30;9.40;;;8.40;99.90;;;;;;5070051;28;20745;-77
2023/03/13 02:58:05;;;;;;;27.20;8.80;;;8.40;99.90;;;;;;5020438;28;20074;-77
2023/03/13 03:00:31;;;;;;;28.20;8.60;;;8.50;99.90;;;;;;5069826;28;20032;-77
2023/03/13 03:02:57;;;;;;;26.40;8.37;;;8.40;99.90;;;;;;5068920;28;20048;-77
2023/03/13 03:05:23;;;;;;;25.87;8.03;;;8.40;99.90;;;;;;5069894;28;20047;-77
2023/03/13 03:07:49;;;;;;;9.27;4.43;;;8.40;99.90;;;;;;5053561;28;20055;-77
2023/03/13 03:10:16;;;;;;;17.23;6.60;;;8.70;99.90;;;;;;5070287;28;20052;-77
2023/03/13 03:12:42;;;;;;;15.53;5.90;;;8.70;99.90;;;;;;5068797;28;20132;-77
2023/03/13 03:15:08;;;;;;;18.77;6.60;;;8.70;99.90;;;;;;5069741;28;20119;-76
2023/03/13 03:17:34;;;;;;;14.10;6.57;;;8.70;99.90;;;;;;5053091;28;20047;-79
2023/03/13 03:19:59;;;;;;;14.40;6.23;;;8.60;99.90;;;;;;5069901;28;20366;-77
2023/03/13 03:22:25;;;;;;;13.80;6.57;;;8.70;99.90;;;;;;5069090;28;20041;-77
2023/03/13 03:24:51;;;;;;;18.97;7.10;;;8.70;99.90;;;;;;5069467;28;20062;-77
2023/03/13 03:27:16;;;;;;;16.93;6.90;;;8.60;99.90;;;;;;5053330;28;20047;-78
2023/03/13 03:29:42;;;;;;;14.20;6.37;;;8.70;99.90;;;;;;5069845;28;20044;-77
2023/03/13 03:32:08;;;;;;;15.53;6.57;;;8.80;99.90;;;;;;5071126;28;20044;-77
2023/03/13 03:34:33;;;;;;;14.70;5.83;;;8.70;99.90;;;;;;5069728;28;20041;-78
2023/03/13 03:36:59;;;;;;;13.00;6.20;;;8.80;99.90;;;;;;5054628;28;20067;-78
2023/03/13 03:39:25;;;;;;;12.77;6.33;;;8.70;99.90;;;;;;5068536;28;20047;-78
2023/03/13 03:41:50;;;;;;;15.33;7.50;;;8.80;99.90;;;;;;5069792;28;20040;-78
2023/03/13 03:44:16;;;;;;;15.10;7.27;;;8.80;99.90;;;;;;5068717;28;20028;-78
2023/03/13 03:46:42;;;;;;;17.17;7.30;;;8.80;99.90;;;;;;5053584;28;20141;-79
2023/03/13 03:49:07;;;;;;;14.03;7.20;;;8.90;99.90;;;;;;5068568;28;20122;-77
2023/03/13 03:51:33;;;;;;;15.83;7.40;;;8.90;99.90;;;;;;5058971;28;20068;-77
2023/03/13 03:53:59;;;;;;;17.40;7.00;;;8.90;99.90;;;;;;5068620;28;20040;-76
2023/03/13 03:56:24;;;;;;;12.10;6.70;;;8.90;99.90;;;;;;5057311;28;20536;-78
2023/03/13 03:58:50;;;;;;;14.60;7.07;;;8.80;99.90;;;;;;5064919;28;20048;-78
2023/03/13 04:01:16;;;;;;;8.67;5.80;;;9.00;99.90;;;;;;5069568;28;20119;-77
2023/03/13 04:03:41;;;;;;;13.23;6.33;;;9.00;99.90;;;;;;5068137;28;20378;-77
2023/03/13 04:06:08;;;;;;;13.80;6.93;;;8.90;99.90;;;;;;5062206;28;20105;-78
2023/03/13 04:08:35;;;;;;;11.40;6.90;;;8.90;99.90;;;;;;5042258;28;20040;-77
2023/03/13 04:11:01;;;;;;;10.50;6.33;;;8.90;99.90;;;;;;5051927;28;20052;-77
2023/03/13 04:13:27;;;;;;;9.07;5.73;;;9.20;99.90;;;;;;5050503;28;20044;-78
2023/03/13 04:15:53;;;;;;;11.73;6.40;;;9.00;99.90;;;;;;5069465;28;20040;-78
2023/03/13 04:18:18;;;;;;;9.37;5.87;;;9.30;99.90;;;;;;5052228;28;20041;-81
2023/03/13 04:20:44;;;;;;;10.53;5.47;;;9.20;99.90;;;;;;5068821;28;20082;-80
2023/03/13 04:23:10;;;;;;;10.73;6.17;;;9.20;99.90;;;;;;5068261;28;20052;-80
2023/03/13 04:25:36;;;;;;;8.20;5.80;;;9.30;99.90;;;;;;5069476;28;20067;-77
2023/03/13 04:28:01;;;;;;;14.37;8.50;;;9.40;99.90;;;;;;5052923;28;20040;-77
2023/03/13 04:30:27;;;;;;;12.77;9.33;;;9.50;99.90;;;;;;5069638;28;20048;-78
2023/03/13 04:32:53;;;;;;;14.90;11.40;;;9.80;99.90;;;;;;5052121;28;20049;-78
2023/03/13 04:35:19;;;;;;;17.07;11.90;;;9.60;99.90;;;;;;5060075;28;20295;-77
2023/03/13 04:37:44;;;;;;;19.17;12.53;;;9.90;99.90;;;;;;5050121;28;20036;-78
2023/03/13 04:40:12;;;;;;;17.90;12.20;;;9.90;99.90;;;;;;5066379;28;20048;-77
2023/03/13 04:42:38;;;;;;;22.00;12.50;;;9.90;99.90;;;;;;5064427;28;20119;-77
2023/03/13 04:45:05;;;;;;;20.97;12.43;;;9.80;99.90;;;;;;5060941;28;20055;-77
2023/03/13 04:47:30;;;;;;;21.80;13.40;;;10.10;99.90;;;;;;5053822;28;20433;-78
2023/03/13 04:49:56;;;;;;;23.63;14.13;;;10.00;99.90;;;;;;5069462;28;20127;-78
2023/03/13 04:52:21;;;;;;;22.93;14.53;;;10.20;99.90;;;;;;5051254;28;20471;-77
2023/03/13 04:54:49;;;;;;;22.67;13.50;;;10.30;99.90;;;;;;5069548;28;20528;-77
2023/03/13 04:57:15;;;;;;;25.50;13.67;;;10.30;99.90;;;;;;5051823;28;20465;-77
2023/03/13 04:59:41;;;;;;;21.67;12.57;;;10.40;99.90;;;;;;5068908;28;20049;-77
2023/03/13 05:02:11;;;;;;;21.33;13.23;;;10.40;99.90;;;;;;5067866;28;20127;-77
2023/03/13 05:04:36;;;;;;;16.77;12.90;;;10.40;99.90;;;;;;5068709;28;20049;-81
2023/03/13 05:07:02;;;;;;;19.23;12.40;;;10.50;99.90;;;;;;5051907;28;20123;-77
2023/03/13 05:09:28;;;;;;;17.67;11.40;;;10.40;99.90;;;;;;5068259;28;20047;-78
2023/03/13 05:11:53;;;;;;;16.93;11.03;;;10.50;99.90;;;;;;5068561;28;20486;-77
2023/03/13 05:14:19;;;;;;;22.70;10.90;;;10.60;99.90;;;;;;5067612;28;20052;-79
2023/03/13 05:16:45;;;;;;;22.17;10.70;;;10.50;99.90;;;;;;5021105;28;20123;-77
2023/03/13 05:19:10;;;;;;;22.63;10.57;;;10.70;99.90;;;;;;5071260;28;20048;-77
2023/03/13 05:21:36;;;;;;;21.13;9.27;;;10.70;99.90;;;;;;5071756;28;20041;-77
2023/03/13 05:24:01;;;;;;;20.40;9.23;;;10.70;99.90;;;;;;5071194;28;20041;-79
2023/03/13 05:26:27;;;;;;;24.83;9.70;;;10.70;99.90;;;;;;5025872;28;20562;-78
2023/03/13 05:28:53;;;;;;;18.20;8.60;;;10.80;99.90;;;;;;5067945;28;20119;-77
2023/03/13 05:31:18;;;;;;;17.30;8.30;;;10.60;99.90;;;;;;5074934;28;20043;-77
2023/03/13 05:33:44;;;;;;;18.47;8.07;;;10.80;99.90;;;;;;5052570;28;20497;-78
2023/03/13 05:36:10;;;;;;;19.50;7.20;;;10.80;99.90;;;;;;5064016;28;20048;-78
2023/03/13 05:38:36;;;;;;;15.93;7.47;;;10.80;99.90;;;;;;5065207;28;20040;-77
2023/03/13 05:41:01;;;;;;;16.67;6.27;;;10.90;99.90;;;;;;5071567;28;20382;-77
2023/03/13 05:43:27;;;;;;;16.40;6.30;;;10.90;99.90;;;;;;5070629;28;20044;-78
2023/03/13 05:45:52;;;;;;;19.77;6.40;;;11.10;99.90;;;;;;5090279;28;20314;-81
2023/03/13 05:48:18;;;;;;;16.20;6.90;;;11.10;99.90;;;;;;5056184;28;20051;-78
2023/03/13 05:50:44;;;;;;;19.33;6.63;;;11.00;99.90;;;;;;5069590;28;20041;-77
2023/03/13 05:53:09;;;;;;;19.17;6.07;;;11.10;99.90;;;;;;5070940;28;20040;-78
2023/03/13 05:55:35;;;;;;;16.40;6.20;;;11.10;99.90;;;;;;5054068;28;20071;-78
2023/03/13 05:58:01;;;;;;;17.90;6.80;;;11.20;99.90;;;;;;5055549;28;20042;-77
2023/03/13 06:00:26;;;;;;;16.47;7.57;;;11.10;99.90;;;;;;5053741;28;20044;-77
2023/03/13 06:02:52;;;;;;;18.07;8.03;;;11.20;99.90;;;;;;5051634;28;20049;-78
2023/03/13 06:05:18;;;;;;;19.50;7.90;;;11.10;99.90;;;;;;5067568;28;20036;-78
2023/03/13 06:07:43;;;;;;;18.57;6.73;;;11.20;99.90;;;;;;5052227;28;20040;-77
2023/03/13 06:10:10;;;;;;;16.73;6.77;;;11.40;99.90;;;;;;5050900;28;20045;-77
2023/03/13 06:12:35;;;;;;;24.93;7.43;;;11.30;99.90;;;;;;5063510;28;20044;-80
2023/03/13 06:15:01;;;;;;;14.93;6.20;;;11.30;99.90;;;;;;5050257;28;20486;-80
2023/03/13 06:17:27;;;;;;;17.70;6.70;;;11.20;99.90;;;;;;5053346;28;20051;-76
2023/03/13 06:19:52;;;;;;;19.77;7.70;;;11.10;99.90;;;;;;5070780;28;20454;-77
2023/03/13 06:22:18;;;;;;;22.57;7.73;;;11.10;99.90;;;;;;5051802;28;20052;-77
2023/03/13 06:24:45;;;;;;;24.63;7.80;;;11.20;99.90;;;;;;5071368;28;20032;-80
2023/03/13 06:27:11;;;;;;;16.53;6.80;;;11.10;99.90;;;;;;5054145;28;20049;-77
2023/03/13 06:29:37;;;;;;;21.40;7.83;;;11.10;99.90;;;;;;5070262;28;20106;-77
2023/03/13 06:32:02;;;;;;;20.23;6.63;;;11.10;99.90;;;;;;5072932;28;20087;-77
2023/03/13 06:34:28;;;;;;;22.47;7.00;;;11.10;99.90;;;;;;5053007;28;20417;-77
2023/03/13 06:36:55;;;;;;;19.77;5.93;;;11.10;99.90;;;;;;5050898;28;20117;-82
2023/03/13 06:39:21;;;;;;;23.03;6.43;;;11.10;99.90;;;;;;5052244;28;20044;-77
2023/03/13 06:41:46;;;;;;;20.80;6.30;;;11.00;99.90;;;;;;5070111;28;20487;-78
2023/03/13 06:44:12;;;;;;;19.83;6.43;;;10.90;99.90;;;;;;5051824;28;20037;-76
2023/03/13 06:46:37;;;;;;;21.27;6.27;;;10.80;99.90;;;;;;5039183;28;20052;-79
2023/03/13 06:49:04;;;;;;;20.70;6.50;;;10.90;99.90;;;;;;5049781;28;20422;-77
2023/03/13 06:51:30;;;;;;;20.97;6.43;;;10.90;99.90;;;;;;5062569;28;20502;-77
2023/03/13 06:53:56;;;;;;;20.27;6.43;;;10.90;99.90;;;;;;5051276;28;20127;-77
2023/03/13 06:56:21;;;;;;;18.63;5.53;;;11.00;99.90;;;;;;5058668;28;20067;-77
2023/03/13 06:58:50;;;;;;;14.07;5.53;;;11.00;99.90;;;;;;5066734;28;20052;-77
2023/03/13 07:01:16;;;;;;;18.80;6.30;;;11.10;99.90;;;;;;5070879;28;20040;-77
2023/03/13 07:03:43;;;;;;;26.93;6.60;;;11.10;99.90;;;;;;5069497;28;20136;-77
2023/03/13 07:06:10;;;;;;;16.47;6.13;;;11.00;99.90;;;;;;5044788;28;20040;-80
2023/03/13 07:08:36;;;;;;;22.27;5.97;;;11.10;99.90;;;;;;5042749;28;20072;-78
2023/03/13 07:11:05;;;;;;;17.17;6.03;;;11.10;99.90;;;;;;5068974;28;20481;-80
2023/03/13 07:13:31;;;;;;;19.13;5.80;;;11.20;99.90;;;;;;5068524;28;20486;-76
2023/03/13 07:16:03;;;;;;;19.33;5.73;;;11.20;99.90;;;;;;5070117;28;20041;-78
2023/03/13 07:18:29;;;;;;;20.10;6.20;;;11.30;99.90;;;;;;5053465;28;20044;-77
2023/03/13 07:20:57;;;;;;;18.63;6.10;;;11.30;99.90;;;;;;5051710;28;20521;-77
2023/03/13 07:23:24;;;;;;;18.67;5.50;;;11.30;99.90;;;;;;5068988;28;20041;-77
2023/03/13 07:25:58;;;;;;;17.97;5.47;;;11.30;99.90;;;;;;5070182;28;20475;-78
2023/03/13 07:28:25;;;;;;;20.93;5.83;;;11.30;99.90;;;;;;5035403;28;20040;-78
2023/03/13 07:30:51;;;;;;;19.40;5.97;;;11.20;99.90;;;;;;5067574;28;20041;-76
2023/03/13 07:33:17;;;;;;;14.10;6.00;;;11.10;99.90;;;;;;5068394;28;20097;-76
2023/03/13 07:35:48;;;;;;;26.50;7.33;;;11.20;99.90;;;;;;5035482;28;20044;-77
2023/03/13 07:38:13;;;;;;;20.03;6.57;;;11.10;99.90;;;;;;5054049;28;20506;-78
2023/03/13 07:40:39;;;;;;;20.07;6.30;;;11.20;99.90;;;;;;5050916;28;20049;-79
2023/03/13 07:43:05;;;;;;;18.07;5.37;;;11.10;99.90;;;;;;5067713;28;20059;-78
2023/03/13 07:45:31;;;;;;;18.73;5.37;;;11.20;99.90;;;;;;5072127;28;20041;-76
2023/03/13 07:47:56;;;;;;;19.37;5.30;;;11.20;99.90;;;;;;5051195;28;20044;-76
2023/03/13 07:50:22;;;;;;;17.03;5.20;;;11.20;99.90;;;;;;5069040;28;20179;-77
2023/03/13 07:52:47;;;;;;;18.33;5.20;;;11.20;99.90;;;;;;5066105;28;20036;-77
2023/03/13 07:55:13;;;;;;;16.87;4.47;;;11.10;99.90;;;;;;5068317;28;20033;-76
2023/03/13 07:57:39;;;;;;;14.67;4.60;;;11.00;99.90;;;;;;5051336;28;20047;-77
2023/03/13 08:00:09;;;;;;;15.33;4.87;;;11.10;99.90;;;;;;5050553;28;20080;-78
2023/03/13 08:02:34;;;;;;;19.73;5.20;;;11.10;99.90;;;;;;5048019;28;20040;-76
2023/03/13 08:05:00;;;;;;;17.10;5.57;;;11.20;99.90;;;;;;5068126;28;20033;-81
2023/03/13 08:07:25;;;;;;;15.43;4.70;;;11.20;99.90;;;;;;5033796;28;20114;-76
2023/03/13 08:09:51;;;;;;;14.70;4.67;;;11.20;99.90;;;;;;5067711;28;20082;-78
2023/03/13 08:12:17;;;;;;;8.80;4.33;;;11.20;99.90;;;;;;5067386;28;20112;-77
2023/03/13 08:14:42;;;;;;;17.10;4.50;;;11.30;99.90;;;;;;5067973;28;20131;-77
2023/03/13 08:17:08;;;;;;;14.70;4.87;;;11.30;99.90;;;;;;5048146;28;20040;-77
2023/03/13 08:19:34;;;;;;;12.63;3.93;;;11.40;99.90;;;;;;5063772;28;20131;-77
2023/03/13 08:21:59;;;;;;;13.50;4.43;;;11.50;99.90;;;;;;5045193;28;20053;-79
2023/03/13 08:24:25;;;;;;;11.20;3.30;;;11.50;99.90;;;;;;5061011;28;20727;-80
2023/03/13 08:26:51;;;;;;;10.10;3.23;;;11.70;99.90;;;;;;5028961;28;20499;-78
2023/03/13 08:29:16;;;;;;;12.87;3.20;;;11.80;99.90;;;;;;5059342;28;20099;-79
2023/03/13 08:31:46;;;;;;;11.93;2.97;;;11.80;99.90;;;;;;5062532;28;20067;-80
2023/03/13 08:34:13;;;;;;;10.87;3.63;;;11.90;99.90;;;;;;5059357;28;20053;-80
2023/03/13 08:36:40;;;;;;;9.83;3.30;;;11.80;99.90;;;;;;5024523;28;20481;-80
2023/03/13 08:39:14;;;;;;;10.87;3.33;;;11.90;99.90;;;;;;5036867;28;20448;-79
2023/03/13 08:41:40;;;;;;;9.43;3.10;;;12.00;99.90;;;;;;5065673;28;20043;-79
2023/03/13 08:44:08;;;;;;;10.57;3.42;;;12.10;99.90;;;;;;5060386;28;20229;-77
2023/03/13 08:46:35;;;;;;;11.20;3.27;;;12.20;99.90;;;;;;5051177;28;20064;-78
2023/03/13 08:49:02;;;;;;;10.07;2.65;;;12.40;99.90;;;;;;5054280;28;20538;-78
2023/03/13 08:51:28;;;;;;;13.95;2.80;;;12.40;99.90;;;;;;5066148;28;20501;-80
2023/03/13 08:53:55;;;;;;;8.95;2.58;;;12.50;99.90;;;;;;5069181;28;20060;-81
2023/03/13 08:56:23;;;;;;;11.10;2.50;;;12.60;99.90;;;;;;5056029;28;20363;-80
2023/03/13 08:58:54;;;;;;;8.77;2.50;;;12.60;99.90;;;;;;5065118;28;20068;-77
2023/03/13 09:01:22;;;;;;;11.75;2.83;;;12.50;99.90;;;;;;5050684;28;20045;-79
2023/03/13 09:03:47;;;;;;;12.57;2.60;;;12.60;99.90;;;;;;5075037;28;20109;-78
2023/03/13 09:06:13;;;;;;;10.02;2.75;;;12.70;99.90;;;;;;5055701;28;20115;-80
2023/03/13 09:08:40;;;;;;;11.40;2.33;;;12.80;99.90;;;;;;5036040;28;20414;-81
2023/03/13 09:11:17;;;;;;;8.80;2.45;;;12.70;99.90;;;;;;5061108;28;20076;-77
2023/03/13 09:13:45;;;;;;;9.93;2.55;;;12.60;99.90;;;;;;5059693;28;20498;-78
2023/03/13 09:16:19;;;;;;;8.63;2.60;;;12.50;99.90;;;;;;5052142;28;20113;-83
2023/03/13 09:18:45;;;;;;;11.45;2.53;;;12.40;99.90;;;;;;5053533;28;20061;-78
2023/03/13 09:21:22;;;;;;;9.45;2.55;;;12.40;99.90;;;;;;5059983;28;20052;-77
2023/03/13 09:23:48;;;;;;;12.93;3.00;;;12.30;99.90;;;;;;5055907;28;20314;-79
2023/03/13 09:26:15;;;;;;;9.35;2.47;;;12.40;99.90;;;;;;5052270;28;20147;-78
2023/03/13 09:28:42;;;;;;;12.75;3.33;;;12.40;99.90;;;;;;5051680;28;20454;-78
2023/03/13 09:31:13;;;;;;;10.25;3.03;;;12.40;99.90;;;;;;5060607;28;20064;-79
2023/03/13 09:33:40;;;;;;;15.20;3.75;;;12.30;99.90;;;;;;5060129;28;20060;-77
2023/03/13 09:36:07;;;;;;;11.50;3.08;;;12.20;99.90;;;;;;5053558;28;20060;-83
2023/03/13 09:38:33;;;;;;;14.80;3.55;;;12.20;99.90;;;;;;5051289;28;20475;-78
2023/03/13 09:41:14;;;;;;;12.60;3.55;;;12.00;99.90;;;;;;5060008;28;20106;-80
2023/03/13 09:43:47;;;;;;;15.85;3.65;;;11.70;99.90;;;;;;5061657;28;20131;-78
2023/03/13 09:46:25;;;;;;;15.30;4.00;;;11.50;99.90;;;;;;5048716;28;20044;-78
2023/03/13 09:49:01;;;;;;;17.33;4.25;;;11.60;99.90;;;;;;5054951;28;20586;-79
2023/03/13 09:51:37;;;;;;;17.45;4.60;;;11.70;99.90;;;;;;5057910;28;20146;-80
2023/03/13 09:54:15;;;;;;;14.07;3.97;;;11.80;99.90;;;;;;5056611;28;20039;-81
2023/03/13 09:56:55;;;;;;;17.40;4.20;;;11.90;99.90;;;;;;5044526;28;20539;-78
2023/03/13 09:59:42;;;;;;;20.85;4.13;;;12.10;99.90;;;;;;5057193;28;20040;-77
2023/03/13 10:02:35;;;;;;;15.55;4.03;;;12.50;99.90;;;;;;5054891;28;20055;-77
2023/03/13 10:05:19;;;;;;;23.17;4.32;;;12.90;99.90;;;;;;5064799;28;20044;-77
2023/03/13 10:07:45;;;;;;;11.52;3.88;;;13.10;99.90;;;;;;5049903;28;20055;-78
2023/03/13 10:10:24;;;;;;;16.55;4.47;;;13.30;99.90;;;;;;5040945;28;20092;-79
2023/03/13 10:13:02;;;;;;;17.15;4.40;;;13.50;99.90;;;;;;5059989;28;20410;-80
2023/03/13 10:15:42;;;;;;;16.77;4.10;;;13.60;99.90;;;;;;5063974;28;20045;-79
2023/03/13 10:18:16;;;;;;;16.58;3.60;;;13.60;99.90;;;;;;5023112;28;20052;-79
2023/03/13 10:20:43;;;;;;;18.98;4.45;;;13.80;99.90;;;;;;5040176;28;20048;-82
2023/03/13 10:23:18;;;;;;;22.83;4.68;;;13.90;99.90;;;;;;5038600;28;20072;-79
2023/03/13 10:25:44;;;;;;;20.50;4.95;;;13.80;99.90;;;;;;5039082;28;20532;-79
2023/03/13 10:28:13;;;;;;;18.90;4.97;;;13.60;99.90;;;;;;5037718;28;20053;-78
2023/03/13 10:30:51;;;;;;;22.65;4.60;;;13.50;99.90;;;;;;5053948;28;20097;-80
2023/03/13 10:33:27;;;;;;;14.85;4.78;;;13.70;99.90;;;;;;5052004;28;20044;-80
2023/03/13 10:36:05;;;;;;;14.80;4.93;;;13.80;99.90;;;;;;5054628;28;20577;-80
2023/03/13 10:38:34;;;;;;;24.73;5.30;;;14.00;99.90;;;;;;5009965;28;20098;-79
2023/03/13 10:41:05;;;;;;;19.13;5.05;;;14.10;99.90;;;;;;5054673;28;20052;-80
2023/03/13 10:43:31;;;;;;;21.15;4.80;;;14.20;99.90;;;;;;5050607;28;20120;-81
2023/03/13 10:45:57;;;;;;;19.92;4.38;;;14.10;99.90;;;;;;5052784;28;20086;-78
2023/03/13 10:48:28;;;;;;;24.20;5.03;;;14.10;99.90;;;;;;5037929;28;20419;-81
2023/03/13 10:50:58;;;;;;;21.60;6.00;;;13.90;99.90;;;;;;5036360;28;20044;-76
2023/03/13 10:53:30;;;;;;;23.77;4.95;;;13.90;99.90;;;;;;5053186;28;20150;-77
2023/03/13 10:56:24;;;;;;;19.30;5.50;;;13.80;99.90;;;;;;5055307;28;20407;-77
2023/03/13 10:58:52;;;;;;;24.63;5.65;;;13.80;99.90;;;;;;5051202;28;20079;-78
2023/03/13 11:01:27;;;;;;;21.48;5.07;;;13.80;99.90;;;;;;5054762;28;20047;-77
2023/03/13 11:03:55;;;;;;;18.88;4.95;;;13.70;99.90;;;;;;5053256;28;20087;-80
2023/03/13 11:06:25;;;;;;;19.80;5.28;;;13.60;99.90;;;;;;5030861;28;20551;-77
2023/03/13 11:09:00;;;;;;;22.77;5.28;;;13.50;99.90;;;;;;5033543;28;20420;-79
2023/03/13 11:11:29;;;;;;;19.50;4.55;;;13.60;99.90;;;;;;5054647;28;20036;-80
2023/03/13 11:14:07;;;;;;;18.38;5.00;;;13.50;99.90;;;;;;5053734;28;20056;-79
2023/03/13 11:16:40;;;;;;;25.98;5.15;;;13.60;99.90;;;;;;5042452;28;20060;-79
2023/03/13 11:19:08;;;;;;;21.67;5.22;;;13.60;99.90;;;;;;5052415;28;20052;-77
2023/03/13 11:22:11;;;;;;;16.38;4.85;;;13.80;99.90;;;;;;5054018;28;20143;-77
2023/03/13 11:24:55;;;;;;;20.33;4.63;;;13.70;99.90;;;;;;5050788;28;20044;-77
2023/03/13 11:27:35;;;;;;;21.55;4.78;;;14.00;99.90;;;;;;5036812;28;20044;-77
2023/03/13 11:30:21;;;;;;;14.23;4.00;;;14.30;99.90;;;;;;5042079;28;20362;-77
2023/03/13 11:32:59;;;;;;;16.88;4.30;;;14.50;99.90;;;;;;5055209;28;20139;-78
2023/03/13 11:35:27;;;;;;;14.13;3.28;;;14.30;99.90;;;;;;5053040;28;20466;-78
2023/03/13 11:37:56;;;;;;;14.88;3.67;;;14.40;99.90;;;;;;5038299;28;20137;-78
2023/03/13 11:40:37;;;;;;;16.38;3.97;;;14.40;99.90;;;;;;5054023;28;20051;-77
2023/03/13 11:43:09;;;;;;;;;;;14.30;99.90;;;;;;5035250;28;20051;-77
2023/03/13 11:45:37;;;;;;;;;;;14.20;99.90;;;;;;5054089;28;19990;-76
2023/03/13 11:48:41;;;;;;;12.45;3.75;;;14.20;99.90;;;;;;5037504;28;20293;-77
2023/03/13 11:51:30;;;;;;;14.43;3.97;;;14.30;99.90;;;;;;4991940;28;20045;-78
2023/03/13 11:54:24;;;;;;;11.93;3.50;;;14.30;99.90;;;;;;4992157;28;20058;-81
2023/03/13 11:56:55;;;;;;;21.90;4.65;;;14.20;99.90;;;;;;5027560;28;20073;-80
2023/03/13 11:59:42;;;;;;;18.10;4.53;;;14.10;99.90;;;;;;5034238;28;20391;-78
2023/03/13 12:02:23;;;;;;;20.05;5.00;;;14.00;99.90;;;;;;5051454;28;20048;-77
2023/03/13 12:05:00;;;;;;;18.77;4.30;;;13.90;99.90;;;;;;5052371;28;20048;-78
2023/03/13 12:07:33;;;;;;;17.00;4.30;;;13.90;99.90;;;;;;5035228;28;20466;-78
2023/03/13 12:10:02;;;;;;;19.27;4.80;;;13.80;99.90;;;;;;5051992;28;20052;-77
2023/03/13 12:12:39;;;;;;;21.70;4.70;;;13.70;99.90;;;;;;5049408;28;20083;-80
2023/03/13 12:15:17;;;;;;;22.33;4.97;;;13.60;99.90;;;;;;5053253;28;20469;-77
2023/03/13 12:18:03;;;;;;;19.02;4.60;;;13.60;99.90;;;;;;5001772;28;20059;-77
2023/03/13 12:20:38;;;;;;;24.77;5.13;;;13.60;99.90;;;;;;5052680;28;20056;-77
2023/03/13 12:23:18;;;;;;;24.73;5.70;;;13.50;99.90;;;;;;5051539;28;20045;-78
2023/03/13 12:25:55;;;;;;;21.33;5.47;;;13.60;99.90;;;;;;5055331;28;20406;-77
2023/03/13 12:28:44;;;;;;;21.77;6.00;;;13.80;99.90;;;;;;5041145;28;20052;-77
2023/03/13 12:31:32;;;;;;;22.23;6.10;;;13.60;99.90;;;;;;5057184;28;20452;-78
2023/03/13 12:34:26;;;;;;;26.55;5.55;;;13.60;99.90;;;;;;5038225;28;20055;-79
2023/03/13 12:37:13;;;;;;;21.73;5.80;;;13.60;99.90;;;;;;5039506;28;20052;-78
2023/03/13 12:39:46;;;;;;;23.92;5.45;;;13.60;99.90;;;;;;5036392;28;20542;-79
2023/03/13 12:42:44;;;;;;;26.63;5.85;;;13.70;99.90;;;;;;5053291;28;20058;-79
2023/03/13 12:45:17;;;;;;;24.15;5.38;;;13.80;99.90;;;;;;5053955;28;20425;-78
2023/03/13 12:48:20;;;;;;;29.45;5.32;;;13.90;99.90;;;;;;5041956;28;20085;-78
2023/03/13 12:51:20;;;;;;;20.33;5.18;;;13.90;99.90;;;;;;5058710;28;20064;-78
2023/03/13 12:54:02;;;;;;;28.17;6.00;;;13.90;99.90;;;;;;5056305;28;20048;-76
2023/03/13 12:56:44;;;;;;;23.05;5.53;;;14.00;99.90;;;;;;5045722;28;20059;-79